sensor_id;sensor_type;location;lat;lon;timestamp;P1;durP1;ratioP1;P2;durP2;ratioP2
5696;SDS011;2873;50.966;7.210;2023-04-25T00:01:45;12.85;;;4.95;;
5696;SDS011;2873;50.966;7.210;2023-04-25T00:04:11;11.10;;;5.20;;
5696;SDS011;2873;50.966;7.210;2023-04-25T00:06:36;12.05;;;5.20;;
5696;SDS011;2873;50.966;7.210;2023-04-25T00:09:05;13.50;;;5.00;;
5696;SDS011;2873;50.966;7.210;2023-04-25T00:11:35;11.55;;;5.57;;
5696;SDS011;2873;50.966;7.210;2023-04-25T00:14:01;12.85;;;5.68;;
5696;SDS011;2873;50.966;7.210;2023-04-25T00:16:28;10.87;;;5.57;;
5696;SDS011;2873;50.966;7.210;2023-04-25T00:18:55;17.90;;;5.35;;
5696;SDS011;2873;50.966;7.210;2023-04-25T00:21:21;10.55;;;6.22;;
5696;SDS011;2873;50.966;7.210;2023-04-25T00:23:49;15.13;;;5.90;;
5696;SDS011;2873;50.966;7.210;2023-04-25T00:26:15;12.73;;;6.47;;
5696;SDS011;2873;50.966;7.210;2023-04-25T00:28:40;19.65;;;7.03;;
5696;SDS011;2873;50.966;7.210;2023-04-25T00:31:06;15.97;;;6.90;;
5696;SDS011;2873;50.966;7.210;2023-04-25T00:33:32;16.67;;;7.60;;
5696;SDS011;2873;50.966;7.210;2023-04-25T00:35:58;21.00;;;8.87;;
5696;SDS011;2873;50.966;7.210;2023-04-25T00:38:23;18.20;;;8.10;;
5696;SDS011;2873;50.966;7.210;2023-04-25T00:40:49;14.70;;;7.40;;
5696;SDS011;2873;50.966;7.210;2023-04-25T00:43:14;12.45;;;6.88;;
5696;SDS011;2873;50.966;7.210;2023-04-25T00:45:40;15.40;;;6.63;;
5696;SDS011;2873;50.966;7.210;2023-04-25T00:48:08;17.40;;;6.70;;
5696;SDS011;2873;50.966;7.210;2023-04-25T00:50:34;16.02;;;6.47;;
5696;SDS011;2873;50.966;7.210;2023-04-25T00:53:01;16.52;;;7.30;;
5696;SDS011;2873;50.966;7.210;2023-04-25T00:55:28;18.33;;;7.05;;
5696;SDS011;2873;50.966;7.210;2023-04-25T00:57:56;18.10;;;9.10;;
5696;SDS011;2873;50.966;7.210;2023-04-25T01:00:22;22.95;;;11.27;;
5696;SDS011;2873;50.966;7.210;2023-04-25T01:02:47;23.00;;;10.10;;
5696;SDS011;2873;50.966;7.210;2023-04-25T01:05:13;21.63;;;9.60;;
5696;SDS011;2873;50.966;7.210;2023-04-25T01:07:39;15.50;;;7.40;;
5696;SDS011;2873;50.966;7.210;2023-04-25T01:10:06;13.63;;;6.60;;
5696;SDS011;2873;50.966;7.210;2023-04-25T01:12:32;17.85;;;7.60;;
5696;SDS011;2873;50.966;7.210;2023-04-25T01:14:58;19.75;;;7.10;;
5696;SDS011;2873;50.966;7.210;2023-04-25T01:17:24;14.70;;;6.90;;
5696;SDS011;2873;50.966;7.210;2023-04-25T01:19:49;20.33;;;8.88;;
5696;SDS011;2873;50.966;7.210;2023-04-25T01:22:15;19.35;;;7.47;;
5696;SDS011;2873;50.966;7.210;2023-04-25T01:24:41;15.40;;;6.53;;
5696;SDS011;2873;50.966;7.210;2023-04-25T01:27:07;12.70;;;7.00;;
5696;SDS011;2873;50.966;7.210;2023-04-25T01:29:34;18.10;;;7.30;;
5696;SDS011;2873;50.966;7.210;2023-04-25T01:32:00;16.40;;;7.18;;
5696;SDS011;2873;50.966;7.210;2023-04-25T01:34:26;18.33;;;7.20;;
5696;SDS011;2873;50.966;7.210;2023-04-25T01:36:52;16.05;;;7.78;;
5696;SDS011;2873;50.966;7.210;2023-04-25T01:39:19;15.07;;;7.50;;
5696;SDS011;2873;50.966;7.210;2023-04-25T01:41:45;23.98;;;7.57;;
5696;SDS011;2873;50.966;7.210;2023-04-25T01:44:12;16.17;;;7.80;;
5696;SDS011;2873;50.966;7.210;2023-04-25T01:46:38;20.98;;;8.50;;
5696;SDS011;2873;50.966;7.210;2023-04-25T01:49:03;16.93;;;7.80;;
5696;SDS011;2873;50.966;7.210;2023-04-25T01:51:29;23.50;;;6.93;;
5696;SDS011;2873;50.966;7.210;2023-04-25T01:53:56;20.20;;;7.20;;
5696;SDS011;2873;50.966;7.210;2023-04-25T01:56:22;16.05;;;6.70;;
5696;SDS011;2873;50.966;7.210;2023-04-25T01:58:48;14.80;;;6.63;;
5696;SDS011;2873;50.966;7.210;2023-04-25T02:01:14;13.47;;;6.50;;
5696;SDS011;2873;50.966;7.210;2023-04-25T02:03:39;18.88;;;6.65;;
5696;SDS011;2873;50.966;7.210;2023-04-25T02:06:05;21.37;;;7.70;;
5696;SDS011;2873;50.966;7.210;2023-04-25T02:08:31;16.50;;;6.30;;
5696;SDS011;2873;50.966;7.210;2023-04-25T02:10:57;16.08;;;7.15;;
5696;SDS011;2873;50.966;7.210;2023-04-25T02:13:22;18.80;;;6.70;;
5696;SDS011;2873;50.966;7.210;2023-04-25T02:15:48;21.13;;;7.13;;
5696;SDS011;2873;50.966;7.210;2023-04-25T02:18:13;15.83;;;6.97;;
5696;SDS011;2873;50.966;7.210;2023-04-25T02:20:41;20.67;;;7.72;;
5696;SDS011;2873;50.966;7.210;2023-04-25T02:23:07;19.67;;;7.45;;
5696;SDS011;2873;50.966;7.210;2023-04-25T02:25:32;17.80;;;8.20;;
5696;SDS011;2873;50.966;7.210;2023-04-25T02:27:58;18.73;;;7.05;;
5696;SDS011;2873;50.966;7.210;2023-04-25T02:30:24;21.60;;;8.00;;
5696;SDS011;2873;50.966;7.210;2023-04-25T02:32:49;23.52;;;8.13;;
5696;SDS011;2873;50.966;7.210;2023-04-25T02:35:15;20.42;;;8.25;;
5696;SDS011;2873;50.966;7.210;2023-04-25T02:37:41;18.93;;;8.70;;
5696;SDS011;2873;50.966;7.210;2023-04-25T02:40:07;17.27;;;7.93;;
5696;SDS011;2873;50.966;7.210;2023-04-25T02:42:33;20.40;;;8.60;;
5696;SDS011;2873;50.966;7.210;2023-04-25T02:44:59;21.00;;;10.00;;
5696;SDS011;2873;50.966;7.210;2023-04-25T02:47:25;22.37;;;11.33;;
5696;SDS011;2873;50.966;7.210;2023-04-25T02:49:51;21.02;;;10.23;;
5696;SDS011;2873;50.966;7.210;2023-04-25T02:52:16;20.73;;;9.40;;
5696;SDS011;2873;50.966;7.210;2023-04-25T02:54:42;17.73;;;8.05;;
5696;SDS011;2873;50.966;7.210;2023-04-25T02:57:08;18.80;;;6.72;;
5696;SDS011;2873;50.966;7.210;2023-04-25T02:59:34;15.80;;;5.60;;
5696;SDS011;2873;50.966;7.210;2023-04-25T03:01:59;20.52;;;6.57;;
5696;SDS011;2873;50.966;7.210;2023-04-25T03:04:26;13.18;;;5.18;;
5696;SDS011;2873;50.966;7.210;2023-04-25T03:06:51;16.67;;;7.50;;
5696;SDS011;2873;50.966;7.210;2023-04-25T03:09:18;14.38;;;6.70;;
5696;SDS011;2873;50.966;7.210;2023-04-25T03:11:44;15.38;;;6.05;;
5696;SDS011;2873;50.966;7.210;2023-04-25T03:14:10;15.93;;;6.85;;
5696;SDS011;2873;50.966;7.210;2023-04-25T03:16:36;17.42;;;6.30;;
5696;SDS011;2873;50.966;7.210;2023-04-25T03:19:02;12.68;;;5.20;;
5696;SDS011;2873;50.966;7.210;2023-04-25T03:21:28;12.15;;;5.75;;
5696;SDS011;2873;50.966;7.210;2023-04-25T03:23:56;11.52;;;5.20;;
5696;SDS011;2873;50.966;7.210;2023-04-25T03:26:22;15.15;;;5.45;;
5696;SDS011;2873;50.966;7.210;2023-04-25T03:28:48;12.67;;;5.40;;
5696;SDS011;2873;50.966;7.210;2023-04-25T03:31:13;14.52;;;5.60;;
5696;SDS011;2873;50.966;7.210;2023-04-25T03:33:39;11.05;;;5.05;;
5696;SDS011;2873;50.966;7.210;2023-04-25T03:36:05;14.33;;;5.33;;
5696;SDS011;2873;50.966;7.210;2023-04-25T03:38:31;9.55;;;4.65;;
5696;SDS011;2873;50.966;7.210;2023-04-25T03:40:56;13.25;;;4.28;;
5696;SDS011;2873;50.966;7.210;2023-04-25T03:43:22;9.47;;;4.70;;
5696;SDS011;2873;50.966;7.210;2023-04-25T03:45:47;9.17;;;4.70;;
5696;SDS011;2873;50.966;7.210;2023-04-25T03:48:13;8.23;;;4.63;;
5696;SDS011;2873;50.966;7.210;2023-04-25T03:50:38;11.50;;;4.70;;
5696;SDS011;2873;50.966;7.210;2023-04-25T03:53:04;10.93;;;5.90;;
5696;SDS011;2873;50.966;7.210;2023-04-25T03:55:30;14.17;;;5.70;;
5696;SDS011;2873;50.966;7.210;2023-04-25T03:57:56;17.88;;;5.18;;
5696;SDS011;2873;50.966;7.210;2023-04-25T04:00:22;11.25;;;4.60;;
5696;SDS011;2873;50.966;7.210;2023-04-25T04:02:49;10.48;;;5.00;;
5696;SDS011;2873;50.966;7.210;2023-04-25T04:05:14;12.47;;;5.20;;
5696;SDS011;2873;50.966;7.210;2023-04-25T04:07:40;10.63;;;4.70;;
5696;SDS011;2873;50.966;7.210;2023-04-25T04:10:07;9.55;;;4.97;;
5696;SDS011;2873;50.966;7.210;2023-04-25T04:12:34;14.97;;;5.17;;
5696;SDS011;2873;50.966;7.210;2023-04-25T04:14:59;14.52;;;4.90;;
5696;SDS011;2873;50.966;7.210;2023-04-25T04:17:25;12.50;;;4.88;;
5696;SDS011;2873;50.966;7.210;2023-04-25T04:19:51;13.50;;;5.27;;
5696;SDS011;2873;50.966;7.210;2023-04-25T04:22:16;12.15;;;5.32;;
5696;SDS011;2873;50.966;7.210;2023-04-25T04:24:42;14.53;;;5.80;;
5696;SDS011;2873;50.966;7.210;2023-04-25T04:27:11;9.52;;;5.70;;
5696;SDS011;2873;50.966;7.210;2023-04-25T04:29:37;9.88;;;5.47;;
5696;SDS011;2873;50.966;7.210;2023-04-25T04:32:03;9.27;;;4.95;;
5696;SDS011;2873;50.966;7.210;2023-04-25T04:34:30;11.38;;;5.22;;
5696;SDS011;2873;50.966;7.210;2023-04-25T04:36:56;11.35;;;4.97;;
5696;SDS011;2873;50.966;7.210;2023-04-25T04:39:22;12.63;;;5.07;;
5696;SDS011;2873;50.966;7.210;2023-04-25T04:41:47;10.90;;;5.20;;
5696;SDS011;2873;50.966;7.210;2023-04-25T04:44:13;12.57;;;5.10;;
5696;SDS011;2873;50.966;7.210;2023-04-25T04:46:39;10.40;;;5.80;;
5696;SDS011;2873;50.966;7.210;2023-04-25T04:49:08;9.90;;;5.25;;
5696;SDS011;2873;50.966;7.210;2023-04-25T04:51:34;10.60;;;5.20;;
5696;SDS011;2873;50.966;7.210;2023-04-25T04:54:00;11.68;;;6.00;;
5696;SDS011;2873;50.966;7.210;2023-04-25T04:56:27;12.52;;;5.13;;
5696;SDS011;2873;50.966;7.210;2023-04-25T04:58:55;12.20;;;5.80;;
5696;SDS011;2873;50.966;7.210;2023-04-25T05:01:21;14.35;;;5.95;;
5696;SDS011;2873;50.966;7.210;2023-04-25T05:03:47;12.10;;;5.80;;
5696;SDS011;2873;50.966;7.210;2023-04-25T05:06:12;15.10;;;5.97;;
5696;SDS011;2873;50.966;7.210;2023-04-25T05:08:38;11.63;;;6.20;;
5696;SDS011;2873;50.966;7.210;2023-04-25T05:11:04;9.88;;;5.10;;
5696;SDS011;2873;50.966;7.210;2023-04-25T05:13:29;13.00;;;6.27;;
5696;SDS011;2873;50.966;7.210;2023-04-25T05:15:55;11.70;;;5.80;;
5696;SDS011;2873;50.966;7.210;2023-04-25T05:18:20;13.73;;;5.90;;
5696;SDS011;2873;50.966;7.210;2023-04-25T05:20:46;13.40;;;6.20;;
5696;SDS011;2873;50.966;7.210;2023-04-25T05:23:11;15.00;;;6.68;;
5696;SDS011;2873;50.966;7.210;2023-04-25T05:25:37;13.07;;;6.60;;
5696;SDS011;2873;50.966;7.210;2023-04-25T05:28:02;12.68;;;7.20;;
5696;SDS011;2873;50.966;7.210;2023-04-25T05:30:28;14.43;;;6.63;;
5696;SDS011;2873;50.966;7.210;2023-04-25T05:32:54;16.35;;;6.72;;
5696;SDS011;2873;50.966;7.210;2023-04-25T05:35:19;12.40;;;6.37;;
5696;SDS011;2873;50.966;7.210;2023-04-25T05:37:45;13.48;;;6.60;;
5696;SDS011;2873;50.966;7.210;2023-04-25T05:40:10;12.90;;;7.30;;
5696;SDS011;2873;50.966;7.210;2023-04-25T05:42:36;15.98;;;7.00;;
5696;SDS011;2873;50.966;7.210;2023-04-25T05:45:02;23.53;;;8.10;;
5696;SDS011;2873;50.966;7.210;2023-04-25T05:47:28;25.50;;;9.70;;
5696;SDS011;2873;50.966;7.210;2023-04-25T05:49:53;22.00;;;8.93;;
5696;SDS011;2873;50.966;7.210;2023-04-25T05:52:19;19.90;;;9.20;;
5696;SDS011;2873;50.966;7.210;2023-04-25T05:54:45;23.42;;;9.32;;
5696;SDS011;2873;50.966;7.210;2023-04-25T05:57:23;21.13;;;9.37;;
5696;SDS011;2873;50.966;7.210;2023-04-25T05:59:50;19.30;;;9.05;;
5696;SDS011;2873;50.966;7.210;2023-04-25T06:02:16;23.63;;;9.07;;
5696;SDS011;2873;50.966;7.210;2023-04-25T06:04:42;25.47;;;10.00;;
5696;SDS011;2873;50.966;7.210;2023-04-25T06:07:07;25.13;;;9.20;;
5696;SDS011;2873;50.966;7.210;2023-04-25T06:09:33;19.43;;;7.73;;
5696;SDS011;2873;50.966;7.210;2023-04-25T06:11:59;26.50;;;7.38;;
5696;SDS011;2873;50.966;7.210;2023-04-25T06:14:25;22.42;;;8.27;;
5696;SDS011;2873;50.966;7.210;2023-04-25T06:16:51;25.60;;;7.33;;
5696;SDS011;2873;50.966;7.210;2023-04-25T06:19:17;18.00;;;7.55;;
5696;SDS011;2873;50.966;7.210;2023-04-25T06:21:43;19.07;;;6.90;;
5696;SDS011;2873;50.966;7.210;2023-04-25T06:24:09;18.13;;;6.87;;
5696;SDS011;2873;50.966;7.210;2023-04-25T06:26:35;17.97;;;5.97;;
5696;SDS011;2873;50.966;7.210;2023-04-25T06:29:00;20.88;;;6.70;;
5696;SDS011;2873;50.966;7.210;2023-04-25T06:31:26;18.73;;;6.60;;
5696;SDS011;2873;50.966;7.210;2023-04-25T06:33:52;19.92;;;5.80;;
5696;SDS011;2873;50.966;7.210;2023-04-25T06:36:19;21.35;;;5.63;;
5696;SDS011;2873;50.966;7.210;2023-04-25T06:38:49;21.73;;;7.10;;
5696;SDS011;2873;50.966;7.210;2023-04-25T06:41:16;19.60;;;6.45;;
5696;SDS011;2873;50.966;7.210;2023-04-25T06:43:42;18.57;;;5.90;;
5696;SDS011;2873;50.966;7.210;2023-04-25T06:46:07;17.75;;;6.22;;
5696;SDS011;2873;50.966;7.210;2023-04-25T06:48:33;18.40;;;6.30;;
5696;SDS011;2873;50.966;7.210;2023-04-25T06:50:58;14.05;;;5.90;;
5696;SDS011;2873;50.966;7.210;2023-04-25T06:53:24;11.80;;;5.77;;
5696;SDS011;2873;50.966;7.210;2023-04-25T06:55:49;19.00;;;5.80;;
5696;SDS011;2873;50.966;7.210;2023-04-25T06:58:15;16.45;;;6.15;;
5696;SDS011;2873;50.966;7.210;2023-04-25T07:00:41;21.27;;;6.30;;
5696;SDS011;2873;50.966;7.210;2023-04-25T07:03:07;15.60;;;6.25;;
5696;SDS011;2873;50.966;7.210;2023-04-25T07:05:32;14.25;;;5.63;;
5696;SDS011;2873;50.966;7.210;2023-04-25T07:07:58;15.00;;;5.63;;
5696;SDS011;2873;50.966;7.210;2023-04-25T07:10:23;16.90;;;5.03;;
5696;SDS011;2873;50.966;7.210;2023-04-25T07:12:49;12.23;;;5.28;;
5696;SDS011;2873;50.966;7.210;2023-04-25T07:15:14;14.53;;;5.10;;
5696;SDS011;2873;50.966;7.210;2023-04-25T07:17:40;14.23;;;4.50;;
5696;SDS011;2873;50.966;7.210;2023-04-25T07:20:06;10.90;;;3.95;;
5696;SDS011;2873;50.966;7.210;2023-04-25T07:22:34;18.33;;;4.53;;
5696;SDS011;2873;50.966;7.210;2023-04-25T07:24:59;15.40;;;4.00;;
5696;SDS011;2873;50.966;7.210;2023-04-25T07:27:25;11.23;;;4.00;;
5696;SDS011;2873;50.966;7.210;2023-04-25T07:29:50;15.95;;;4.10;;
5696;SDS011;2873;50.966;7.210;2023-04-25T07:32:16;11.17;;;3.80;;
5696;SDS011;2873;50.966;7.210;2023-04-25T07:34:41;10.23;;;3.77;;
5696;SDS011;2873;50.966;7.210;2023-04-25T07:37:07;13.63;;;3.80;;
5696;SDS011;2873;50.966;7.210;2023-04-25T07:39:32;9.83;;;3.87;;
5696;SDS011;2873;50.966;7.210;2023-04-25T07:41:58;12.23;;;4.03;;
5696;SDS011;2873;50.966;7.210;2023-04-25T07:44:25;13.05;;;4.82;;
5696;SDS011;2873;50.966;7.210;2023-04-25T07:46:50;12.27;;;4.30;;
5696;SDS011;2873;50.966;7.210;2023-04-25T07:49:16;16.75;;;4.13;;
5696;SDS011;2873;50.966;7.210;2023-04-25T07:51:41;10.80;;;4.27;;
5696;SDS011;2873;50.966;7.210;2023-04-25T07:54:08;13.23;;;3.95;;
5696;SDS011;2873;50.966;7.210;2023-04-25T07:56:34;8.52;;;4.10;;
5696;SDS011;2873;50.966;7.210;2023-04-25T07:59:00;9.77;;;4.07;;
5696;SDS011;2873;50.966;7.210;2023-04-25T08:01:26;13.10;;;4.22;;
5696;SDS011;2873;50.966;7.210;2023-04-25T08:03:52;15.15;;;4.18;;
5696;SDS011;2873;50.966;7.210;2023-04-25T08:06:17;13.70;;;4.40;;
5696;SDS011;2873;50.966;7.210;2023-04-25T08:08:43;15.05;;;4.32;;
5696;SDS011;2873;50.966;7.210;2023-04-25T08:11:09;10.60;;;3.77;;
5696;SDS011;2873;50.966;7.210;2023-04-25T08:13:35;10.83;;;4.00;;
5696;SDS011;2873;50.966;7.210;2023-04-25T08:16:01;13.63;;;3.90;;
5696;SDS011;2873;50.966;7.210;2023-04-25T08:18:26;11.63;;;3.50;;
5696;SDS011;2873;50.966;7.210;2023-04-25T08:20:52;11.77;;;3.80;;
5696;SDS011;2873;50.966;7.210;2023-04-25T08:23:17;12.77;;;3.00;;
5696;SDS011;2873;50.966;7.210;2023-04-25T08:25:43;12.17;;;3.57;;
5696;SDS011;2873;50.966;7.210;2023-04-25T08:28:08;9.32;;;3.33;;
5696;SDS011;2873;50.966;7.210;2023-04-25T08:30:34;8.80;;;3.00;;
5696;SDS011;2873;50.966;7.210;2023-04-25T08:33:00;8.77;;;2.70;;
5696;SDS011;2873;50.966;7.210;2023-04-25T08:35:25;9.93;;;3.07;;
5696;SDS011;2873;50.966;7.210;2023-04-25T08:37:51;10.77;;;3.15;;
5696;SDS011;2873;50.966;7.210;2023-04-25T08:40:16;10.02;;;3.15;;
5696;SDS011;2873;50.966;7.210;2023-04-25T08:42:42;8.30;;;2.40;;
5696;SDS011;2873;50.966;7.210;2023-04-25T08:45:08;7.43;;;2.60;;
5696;SDS011;2873;50.966;7.210;2023-04-25T08:47:34;9.75;;;2.90;;
5696;SDS011;2873;50.966;7.210;2023-04-25T08:50:02;7.28;;;3.00;;
5696;SDS011;2873;50.966;7.210;2023-04-25T08:52:29;9.18;;;3.00;;
5696;SDS011;2873;50.966;7.210;2023-04-25T08:54:57;7.32;;;2.67;;
5696;SDS011;2873;50.966;7.210;2023-04-25T08:57:25;10.40;;;3.20;;
5696;SDS011;2873;50.966;7.210;2023-04-25T08:59:52;11.20;;;3.33;;
5696;SDS011;2873;50.966;7.210;2023-04-25T09:02:19;11.77;;;3.90;;
5696;SDS011;2873;50.966;7.210;2023-04-25T09:04:45;8.98;;;3.40;;
5696;SDS011;2873;50.966;7.210;2023-04-25T09:07:11;13.77;;;3.65;;
5696;SDS011;2873;50.966;7.210;2023-04-25T09:09:37;11.93;;;4.18;;
5696;SDS011;2873;50.966;7.210;2023-04-25T09:12:02;14.80;;;4.00;;
5696;SDS011;2873;50.966;7.210;2023-04-25T09:14:28;11.45;;;4.15;;
5696;SDS011;2873;50.966;7.210;2023-04-25T09:19:27;13.27;;;3.45;;
5696;SDS011;2873;50.966;7.210;2023-04-25T09:22:01;14.93;;;4.43;;
5696;SDS011;2873;50.966;7.210;2023-04-25T09:24:40;13.23;;;3.85;;
5696;SDS011;2873;50.966;7.210;2023-04-25T09:27:09;9.70;;;4.32;;
5696;SDS011;2873;50.966;7.210;2023-04-25T09:29:36;9.70;;;3.47;;
5696;SDS011;2873;50.966;7.210;2023-04-25T09:32:14;7.28;;;3.50;;
5696;SDS011;2873;50.966;7.210;2023-04-25T09:34:53;9.52;;;3.80;;
5696;SDS011;2873;50.966;7.210;2023-04-25T09:37:21;17.02;;;3.92;;
5696;SDS011;2873;50.966;7.210;2023-04-25T09:39:55;7.00;;;3.83;;
5696;SDS011;2873;50.966;7.210;2023-04-25T09:42:22;12.60;;;3.70;;
5696;SDS011;2873;50.966;7.210;2023-04-25T09:44:51;10.57;;;4.13;;
5696;SDS011;2873;50.966;7.210;2023-04-25T09:47:18;14.20;;;3.93;;
5696;SDS011;2873;50.966;7.210;2023-04-25T09:49:46;7.72;;;3.55;;
5696;SDS011;2873;50.966;7.210;2023-04-25T09:52:16;10.30;;;3.97;;
5696;SDS011;2873;50.966;7.210;2023-04-25T09:54:44;8.90;;;3.20;;
5696;SDS011;2873;50.966;7.210;2023-04-25T09:57:11;10.48;;;3.15;;
5696;SDS011;2873;50.966;7.210;2023-04-25T09:59:43;12.95;;;2.80;;
5696;SDS011;2873;50.966;7.210;2023-04-25T10:02:17;9.45;;;3.40;;
5696;SDS011;2873;50.966;7.210;2023-04-25T10:04:46;8.20;;;3.47;;
5696;SDS011;2873;50.966;7.210;2023-04-25T10:07:13;12.80;;;3.50;;
5696;SDS011;2873;50.966;7.210;2023-04-25T10:09:39;10.40;;;3.10;;
5696;SDS011;2873;50.966;7.210;2023-04-25T10:12:06;9.45;;;3.33;;
5696;SDS011;2873;50.966;7.210;2023-04-25T10:14:33;8.48;;;3.55;;
5696;SDS011;2873;50.966;7.210;2023-04-25T10:16:59;6.05;;;3.10;;
5696;SDS011;2873;50.966;7.210;2023-04-25T10:19:26;7.78;;;2.97;;
5696;SDS011;2873;50.966;7.210;2023-04-25T10:22:00;7.57;;;3.60;;
5696;SDS011;2873;50.966;7.210;2023-04-25T10:24:34;7.72;;;3.05;;
5696;SDS011;2873;50.966;7.210;2023-04-25T10:27:01;8.60;;;3.00;;
5696;SDS011;2873;50.966;7.210;2023-04-25T10:29:27;9.80;;;3.30;;
5696;SDS011;2873;50.966;7.210;2023-04-25T10:31:52;12.40;;;3.70;;
5696;SDS011;2873;50.966;7.210;2023-04-25T10:34:19;6.68;;;3.00;;
5696;SDS011;2873;50.966;7.210;2023-04-25T10:36:52;11.60;;;3.03;;
5696;SDS011;2873;50.966;7.210;2023-04-25T10:39:22;8.07;;;2.70;;
5696;SDS011;2873;50.966;7.210;2023-04-25T10:41:58;9.98;;;2.38;;
5696;SDS011;2873;50.966;7.210;2023-04-25T10:44:27;8.85;;;3.03;;
5696;SDS011;2873;50.966;7.210;2023-04-25T10:46:57;4.65;;;2.67;;
5696;SDS011;2873;50.966;7.210;2023-04-25T10:49:33;8.10;;;2.60;;
5696;SDS011;2873;50.966;7.210;2023-04-25T10:52:24;6.82;;;2.33;;
5696;SDS011;2873;50.966;7.210;2023-04-25T11:00:10;6.03;;;2.72;;
5696;SDS011;2873;50.966;7.210;2023-04-25T11:02:41;9.63;;;3.40;;
5696;SDS011;2873;50.966;7.210;2023-04-25T11:05:08;4.65;;;2.90;;
5696;SDS011;2873;50.966;7.210;2023-04-25T11:10:14;6.40;;;3.10;;
5696;SDS011;2873;50.966;7.210;2023-04-25T11:12:39;9.63;;;3.10;;
5696;SDS011;2873;50.966;7.210;2023-04-25T11:15:06;7.40;;;2.90;;
5696;SDS011;2873;50.966;7.210;2023-04-25T11:17:32;7.88;;;3.65;;
5696;SDS011;2873;50.966;7.210;2023-04-25T11:19:58;6.82;;;3.30;;
5696;SDS011;2873;50.966;7.210;2023-04-25T11:22:25;10.25;;;2.95;;
5696;SDS011;2873;50.966;7.210;2023-04-25T11:24:52;5.27;;;3.00;;
5696;SDS011;2873;50.966;7.210;2023-04-25T11:27:17;6.80;;;2.90;;
5696;SDS011;2873;50.966;7.210;2023-04-25T11:29:43;8.00;;;3.47;;
5696;SDS011;2873;50.966;7.210;2023-04-25T11:32:08;7.55;;;3.35;;
5696;SDS011;2873;50.966;7.210;2023-04-25T11:34:34;8.75;;;3.67;;
5696;SDS011;2873;50.966;7.210;2023-04-25T11:37:00;6.50;;;2.53;;
5696;SDS011;2873;50.966;7.210;2023-04-25T11:39:27;6.83;;;3.00;;
5696;SDS011;2873;50.966;7.210;2023-04-25T11:41:53;9.48;;;2.60;;
5696;SDS011;2873;50.966;7.210;2023-04-25T11:44:20;8.10;;;2.47;;
5696;SDS011;2873;50.966;7.210;2023-04-25T11:46:46;6.32;;;2.00;;
5696;SDS011;2873;50.966;7.210;2023-04-25T11:49:12;4.65;;;2.20;;
5696;SDS011;2873;50.966;7.210;2023-04-25T11:51:39;5.72;;;2.10;;
5696;SDS011;2873;50.966;7.210;2023-04-25T11:54:05;3.50;;;1.80;;
5696;SDS011;2873;50.966;7.210;2023-04-25T11:56:30;3.90;;;1.50;;
5696;SDS011;2873;50.966;7.210;2023-04-25T11:59:01;5.35;;;2.15;;
5696;SDS011;2873;50.966;7.210;2023-04-25T12:01:28;5.40;;;2.40;;
5696;SDS011;2873;50.966;7.210;2023-04-25T12:03:55;3.05;;;1.80;;
5696;SDS011;2873;50.966;7.210;2023-04-25T12:06:21;4.67;;;1.40;;
5696;SDS011;2873;50.966;7.210;2023-04-25T12:09:03;4.03;;;1.50;;
5696;SDS011;2873;50.966;7.210;2023-04-25T12:11:30;5.93;;;1.80;;
5696;SDS011;2873;50.966;7.210;2023-04-25T12:14:01;2.90;;;1.70;;
5696;SDS011;2873;50.966;7.210;2023-04-25T12:16:30;4.35;;;1.80;;
5696;SDS011;2873;50.966;7.210;2023-04-25T12:19:06;4.13;;;1.60;;
5696;SDS011;2873;50.966;7.210;2023-04-25T12:21:32;4.68;;;1.90;;
5696;SDS011;2873;50.966;7.210;2023-04-25T12:24:08;6.37;;;2.00;;
5696;SDS011;2873;50.966;7.210;2023-04-25T12:29:26;6.97;;;1.60;;
5696;SDS011;2873;50.966;7.210;2023-04-25T12:31:54;3.90;;;1.40;;
5696;SDS011;2873;50.966;7.210;2023-04-25T12:34:20;2.55;;;1.35;;
5696;SDS011;2873;50.966;7.210;2023-04-25T12:36:47;4.30;;;1.50;;
5696;SDS011;2873;50.966;7.210;2023-04-25T12:41:42;3.20;;;1.60;;
5696;SDS011;2873;50.966;7.210;2023-04-25T12:44:08;3.78;;;1.55;;
5696;SDS011;2873;50.966;7.210;2023-04-25T12:46:33;2.60;;;1.70;;
5696;SDS011;2873;50.966;7.210;2023-04-25T12:48:59;5.47;;;1.65;;
5696;SDS011;2873;50.966;7.210;2023-04-25T12:51:25;5.68;;;2.20;;
5696;SDS011;2873;50.966;7.210;2023-04-25T12:53:52;5.63;;;1.70;;
5696;SDS011;2873;50.966;7.210;2023-04-25T12:56:18;2.53;;;1.35;;
5696;SDS011;2873;50.966;7.210;2023-04-25T12:58:43;4.25;;;1.88;;
5696;SDS011;2873;50.966;7.210;2023-04-25T13:01:09;4.10;;;1.63;;
5696;SDS011;2873;50.966;7.210;2023-04-25T13:03:35;8.23;;;2.20;;
5696;SDS011;2873;50.966;7.210;2023-04-25T13:06:00;7.50;;;2.00;;
5696;SDS011;2873;50.966;7.210;2023-04-25T13:08:26;3.53;;;1.87;;
5696;SDS011;2873;50.966;7.210;2023-04-25T13:10:52;3.40;;;1.42;;
5696;SDS011;2873;50.966;7.210;2023-04-25T13:13:17;3.70;;;2.00;;
5696;SDS011;2873;50.966;7.210;2023-04-25T13:15:43;6.93;;;2.25;;
5696;SDS011;2873;50.966;7.210;2023-04-25T13:18:08;6.13;;;1.55;;
5696;SDS011;2873;50.966;7.210;2023-04-25T13:20:34;7.20;;;1.67;;
5696;SDS011;2873;50.966;7.210;2023-04-25T13:23:00;4.47;;;1.75;;
5696;SDS011;2873;50.966;7.210;2023-04-25T13:25:26;5.37;;;2.20;;
5696;SDS011;2873;50.966;7.210;2023-04-25T13:27:51;4.78;;;2.20;;
5696;SDS011;2873;50.966;7.210;2023-04-25T13:30:17;4.30;;;1.83;;
5696;SDS011;2873;50.966;7.210;2023-04-25T13:32:42;7.73;;;1.73;;
5696;SDS011;2873;50.966;7.210;2023-04-25T13:35:09;5.05;;;2.00;;
5696;SDS011;2873;50.966;7.210;2023-04-25T13:37:37;5.75;;;2.20;;
5696;SDS011;2873;50.966;7.210;2023-04-25T13:40:03;4.45;;;2.00;;
5696;SDS011;2873;50.966;7.210;2023-04-25T13:42:31;6.07;;;2.60;;
5696;SDS011;2873;50.966;7.210;2023-04-25T13:44:57;4.07;;;2.05;;
5696;SDS011;2873;50.966;7.210;2023-04-25T13:47:23;6.13;;;2.20;;
5696;SDS011;2873;50.966;7.210;2023-04-25T13:49:49;4.07;;;2.67;;
5696;SDS011;2873;50.966;7.210;2023-04-25T13:52:15;3.35;;;2.10;;
5696;SDS011;2873;50.966;7.210;2023-04-25T13:54:41;3.40;;;2.10;;
5696;SDS011;2873;50.966;7.210;2023-04-25T13:57:06;3.00;;;1.70;;
5696;SDS011;2873;50.966;7.210;2023-04-25T13:59:32;3.10;;;1.92;;
5696;SDS011;2873;50.966;7.210;2023-04-25T14:01:58;2.10;;;1.90;;
5696;SDS011;2873;50.966;7.210;2023-04-25T14:04:24;2.47;;;1.42;;
5696;SDS011;2873;50.966;7.210;2023-04-25T14:06:50;4.27;;;1.50;;
5696;SDS011;2873;50.966;7.210;2023-04-25T14:09:16;2.70;;;2.17;;
5696;SDS011;2873;50.966;7.210;2023-04-25T14:11:42;5.22;;;2.17;;
5696;SDS011;2873;50.966;7.210;2023-04-25T14:14:07;6.47;;;2.45;;
5696;SDS011;2873;50.966;7.210;2023-04-25T14:16:33;3.88;;;2.10;;
5696;SDS011;2873;50.966;7.210;2023-04-25T14:18:59;4.07;;;2.10;;
5696;SDS011;2873;50.966;7.210;2023-04-25T14:21:26;6.05;;;2.10;;
5696;SDS011;2873;50.966;7.210;2023-04-25T14:23:53;4.03;;;2.10;;
5696;SDS011;2873;50.966;7.210;2023-04-25T14:26:20;5.68;;;2.13;;
5696;SDS011;2873;50.966;7.210;2023-04-25T14:28:45;4.65;;;2.70;;
5696;SDS011;2873;50.966;7.210;2023-04-25T14:31:11;4.57;;;2.23;;
5696;SDS011;2873;50.966;7.210;2023-04-25T14:33:36;2.45;;;1.92;;
5696;SDS011;2873;50.966;7.210;2023-04-25T14:36:04;4.50;;;2.13;;
5696;SDS011;2873;50.966;7.210;2023-04-25T14:38:30;8.80;;;2.40;;
5696;SDS011;2873;50.966;7.210;2023-04-25T14:40:56;4.30;;;2.20;;
5696;SDS011;2873;50.966;7.210;2023-04-25T14:43:21;7.05;;;2.30;;
5696;SDS011;2873;50.966;7.210;2023-04-25T14:45:47;5.03;;;2.30;;
5696;SDS011;2873;50.966;7.210;2023-04-25T14:48:12;9.00;;;2.23;;
5696;SDS011;2873;50.966;7.210;2023-04-25T14:50:38;4.95;;;2.30;;
5696;SDS011;2873;50.966;7.210;2023-04-25T14:53:03;6.80;;;2.70;;
5696;SDS011;2873;50.966;7.210;2023-04-25T14:55:29;2.92;;;1.80;;
5696;SDS011;2873;50.966;7.210;2023-04-25T14:57:55;3.70;;;2.10;;
5696;SDS011;2873;50.966;7.210;2023-04-25T15:00:21;5.47;;;2.40;;
5696;SDS011;2873;50.966;7.210;2023-04-25T15:02:47;2.90;;;1.40;;
5696;SDS011;2873;50.966;7.210;2023-04-25T15:05:13;3.05;;;1.70;;
5696;SDS011;2873;50.966;7.210;2023-04-25T15:07:40;3.50;;;1.30;;
5696;SDS011;2873;50.966;7.210;2023-04-25T15:10:06;5.03;;;2.28;;
5696;SDS011;2873;50.966;7.210;2023-04-25T15:12:38;4.78;;;1.90;;
5696;SDS011;2873;50.966;7.210;2023-04-25T15:15:07;4.00;;;2.20;;
5696;SDS011;2873;50.966;7.210;2023-04-25T15:17:37;3.30;;;1.90;;
5696;SDS011;2873;50.966;7.210;2023-04-25T15:20:04;6.10;;;1.60;;